sensor_id;sensor_type;location;lat;lon;timestamp;P1;durP1;ratioP1;P2;durP2;ratioP2
33491;SDS011;20010;51.488;7.232;2023-02-23T00:01:34;55.60;;;43.53;;
33491;SDS011;20010;51.488;7.232;2023-02-23T00:04:01;58.15;;;45.58;;
33491;SDS011;20010;51.488;7.232;2023-02-23T00:06:29;59.00;;;42.97;;
33491;SDS011;20010;51.488;7.232;2023-02-23T00:08:57;60.40;;;47.53;;
33491;SDS011;20010;51.488;7.232;2023-02-23T00:11:26;59.15;;;45.88;;
33491;SDS011;20010;51.488;7.232;2023-02-23T00:13:53;65.15;;;48.33;;
33491;SDS011;20010;51.488;7.232;2023-02-23T00:16:23;59.42;;;45.88;;
33491;SDS011;20010;51.488;7.232;2023-02-23T00:18:51;63.47;;;47.28;;
33491;SDS011;20010;51.488;7.232;2023-02-23T00:21:23;67.18;;;49.60;;
33491;SDS011;20010;51.488;7.232;2023-02-23T00:23:56;68.35;;;49.05;;
33491;SDS011;20010;51.488;7.232;2023-02-23T00:26:25;69.10;;;45.28;;
33491;SDS011;20010;51.488;7.232;2023-02-23T00:28:55;62.10;;;46.50;;
33491;SDS011;20010;51.488;7.232;2023-02-23T00:31:23;69.03;;;48.65;;
33491;SDS011;20010;51.488;7.232;2023-02-23T00:33:51;67.97;;;49.95;;
33491;SDS011;20010;51.488;7.232;2023-02-23T00:36:20;72.75;;;51.38;;
33491;SDS011;20010;51.488;7.232;2023-02-23T00:38:51;74.43;;;52.13;;
33491;SDS011;20010;51.488;7.232;2023-02-23T00:41:19;88.22;;;54.90;;
33491;SDS011;20010;51.488;7.232;2023-02-23T00:43:49;75.57;;;52.70;;
33491;SDS011;20010;51.488;7.232;2023-02-23T00:46:16;71.80;;;51.13;;
33491;SDS011;20010;51.488;7.232;2023-02-23T00:48:44;68.50;;;49.58;;
33491;SDS011;20010;51.488;7.232;2023-02-23T00:51:11;75.03;;;51.60;;
33491;SDS011;20010;51.488;7.232;2023-02-23T00:53:38;71.72;;;51.90;;
33491;SDS011;20010;51.488;7.232;2023-02-23T00:56:06;81.22;;;55.20;;
33491;SDS011;20010;51.488;7.232;2023-02-23T00:58:34;75.55;;;53.30;;
33491;SDS011;20010;51.488;7.232;2023-02-23T01:01:01;74.80;;;50.97;;
33491;SDS011;20010;51.488;7.232;2023-02-23T01:03:28;72.40;;;51.05;;
33491;SDS011;20010;51.488;7.232;2023-02-23T01:05:58;78.35;;;55.20;;
33491;SDS011;20010;51.488;7.232;2023-02-23T01:10:55;72.28;;;49.45;;
33491;SDS011;20010;51.488;7.232;2023-02-23T01:13:22;75.68;;;52.47;;
33491;SDS011;20010;51.488;7.232;2023-02-23T01:15:49;85.68;;;56.78;;
33491;SDS011;20010;51.488;7.232;2023-02-23T01:18:18;83.10;;;55.88;;
33491;SDS011;20010;51.488;7.232;2023-02-23T01:20:45;76.78;;;54.40;;
33491;SDS011;20010;51.488;7.232;2023-02-23T01:23:12;82.70;;;54.55;;
33491;SDS011;20010;51.488;7.232;2023-02-23T01:25:41;74.15;;;51.72;;
33491;SDS011;20010;51.488;7.232;2023-02-23T01:28:08;79.70;;;51.33;;
33491;SDS011;20010;51.488;7.232;2023-02-23T01:30:36;78.53;;;52.85;;
33491;SDS011;20010;51.488;7.232;2023-02-23T01:33:03;68.93;;;50.13;;
33491;SDS011;20010;51.488;7.232;2023-02-23T01:35:30;74.97;;;51.42;;
33491;SDS011;20010;51.488;7.232;2023-02-23T01:37:58;68.85;;;51.25;;
33491;SDS011;20010;51.488;7.232;2023-02-23T01:40:25;61.83;;;46.50;;
33491;SDS011;20010;51.488;7.232;2023-02-23T01:43:05;63.60;;;48.50;;
33491;SDS011;20010;51.488;7.232;2023-02-23T01:45:37;61.65;;;47.10;;
33491;SDS011;20010;51.488;7.232;2023-02-23T01:48:06;64.72;;;46.67;;
33491;SDS011;20010;51.488;7.232;2023-02-23T01:50:42;61.00;;;44.90;;
33491;SDS011;20010;51.488;7.232;2023-02-23T01:53:22;60.28;;;44.75;;
33491;SDS011;20010;51.488;7.232;2023-02-23T01:55:58;68.03;;;47.88;;
33491;SDS011;20010;51.488;7.232;2023-02-23T01:58:37;65.30;;;49.53;;
33491;SDS011;20010;51.488;7.232;2023-02-23T02:01:04;62.13;;;45.95;;
33491;SDS011;20010;51.488;7.232;2023-02-23T02:03:42;65.30;;;49.85;;
33491;SDS011;20010;51.488;7.232;2023-02-23T02:06:14;64.72;;;48.17;;
33491;SDS011;20010;51.488;7.232;2023-02-23T02:08:44;66.20;;;47.97;;
33491;SDS011;20010;51.488;7.232;2023-02-23T02:11:13;71.40;;;53.70;;
33491;SDS011;20010;51.488;7.232;2023-02-23T02:13:52;74.07;;;52.97;;
33491;SDS011;20010;51.488;7.232;2023-02-23T02:42:26;74.47;;;51.25;;
33491;SDS011;20010;51.488;7.232;2023-02-23T02:45:05;70.45;;;50.88;;
33491;SDS011;20010;51.488;7.232;2023-02-23T02:47:46;75.72;;;52.22;;
33491;SDS011;20010;51.488;7.232;2023-02-23T02:50:34;74.63;;;52.75;;
33491;SDS011;20010;51.488;7.232;2023-02-23T02:53:13;70.20;;;49.38;;
33491;SDS011;20010;51.488;7.232;2023-02-23T02:55:41;66.22;;;49.35;;
33491;SDS011;20010;51.488;7.232;2023-02-23T02:58:10;75.05;;;50.75;;
33491;SDS011;20010;51.488;7.232;2023-02-23T03:00:38;74.00;;;52.28;;
33491;SDS011;20010;51.488;7.232;2023-02-23T03:03:42;74.03;;;51.35;;
33491;SDS011;20010;51.488;7.232;2023-02-23T03:06:36;64.88;;;47.03;;
33491;SDS011;20010;51.488;7.232;2023-02-23T03:09:35;68.75;;;50.83;;
33491;SDS011;20010;51.488;7.232;2023-02-23T03:12:40;70.22;;;52.05;;
33491;SDS011;20010;51.488;7.232;2023-02-23T03:30:27;79.50;;;53.85;;
33491;SDS011;20010;51.488;7.232;2023-02-23T03:33:19;82.00;;;55.47;;
33491;SDS011;20010;51.488;7.232;2023-02-23T03:36:16;84.40;;;55.67;;
33491;SDS011;20010;51.488;7.232;2023-02-23T03:39:14;79.60;;;54.22;;
33491;SDS011;20010;51.488;7.232;2023-02-23T03:42:12;75.07;;;53.58;;
33491;SDS011;20010;51.488;7.232;2023-02-23T03:45:02;87.30;;;57.85;;
33491;SDS011;20010;51.488;7.232;2023-02-23T03:47:50;81.38;;;56.17;;
33491;SDS011;20010;51.488;7.232;2023-02-23T03:50:39;82.25;;;52.83;;
33491;SDS011;20010;51.488;7.232;2023-02-23T03:53:28;83.43;;;53.58;;
33491;SDS011;20010;51.488;7.232;2023-02-23T03:56:17;79.97;;;54.88;;
33491;SDS011;20010;51.488;7.232;2023-02-23T03:59:04;81.20;;;55.67;;
33491;SDS011;20010;51.488;7.232;2023-02-23T04:01:50;82.10;;;52.88;;
33491;SDS011;20010;51.488;7.232;2023-02-23T04:04:37;88.03;;;54.72;;
33491;SDS011;20010;51.488;7.232;2023-02-23T04:07:23;81.47;;;55.15;;
33491;SDS011;20010;51.488;7.232;2023-02-23T04:10:08;87.40;;;57.50;;
33491;SDS011;20010;51.488;7.232;2023-02-23T04:12:59;81.72;;;54.90;;
33491;SDS011;20010;51.488;7.232;2023-02-23T04:18:31;83.72;;;55.47;;
33491;SDS011;20010;51.488;7.232;2023-02-23T04:20:59;89.57;;;54.97;;
33491;SDS011;20010;51.488;7.232;2023-02-23T04:23:27;92.13;;;58.13;;
33491;SDS011;20010;51.488;7.232;2023-02-23T04:25:54;94.20;;;57.20;;
33491;SDS011;20010;51.488;7.232;2023-02-23T04:28:21;93.00;;;59.80;;
33491;SDS011;20010;51.488;7.232;2023-02-23T04:30:49;89.82;;;58.00;;
33491;SDS011;20010;51.488;7.232;2023-02-23T04:33:17;88.45;;;54.33;;
33491;SDS011;20010;51.488;7.232;2023-02-23T04:35:44;85.22;;;55.03;;
33491;SDS011;20010;51.488;7.232;2023-02-23T04:38:11;85.82;;;58.25;;
33491;SDS011;20010;51.488;7.232;2023-02-23T04:40:38;93.75;;;58.75;;
33491;SDS011;20010;51.488;7.232;2023-02-23T04:43:04;85.97;;;55.97;;
33491;SDS011;20010;51.488;7.232;2023-02-23T04:45:31;90.55;;;56.65;;
33491;SDS011;20010;51.488;7.232;2023-02-23T04:47:57;91.05;;;58.50;;
33491;SDS011;20010;51.488;7.232;2023-02-23T04:50:24;89.95;;;57.65;;
33491;SDS011;20010;51.488;7.232;2023-02-23T04:52:50;88.13;;;54.88;;
33491;SDS011;20010;51.488;7.232;2023-02-23T04:55:19;87.43;;;54.35;;
33491;SDS011;20010;51.488;7.232;2023-02-23T04:57:47;84.57;;;53.00;;
33491;SDS011;20010;51.488;7.232;2023-02-23T05:00:14;81.00;;;51.83;;
33491;SDS011;20010;51.488;7.232;2023-02-23T05:02:41;84.90;;;54.10;;
33491;SDS011;20010;51.488;7.232;2023-02-23T05:05:08;84.50;;;54.35;;
33491;SDS011;20010;51.488;7.232;2023-02-23T05:07:35;84.95;;;52.72;;
33491;SDS011;20010;51.488;7.232;2023-02-23T05:10:03;83.65;;;55.13;;
33491;SDS011;20010;51.488;7.232;2023-02-23T05:12:30;85.35;;;52.70;;
33491;SDS011;20010;51.488;7.232;2023-02-23T05:14:58;94.78;;;54.92;;
33491;SDS011;20010;51.488;7.232;2023-02-23T05:17:25;89.28;;;55.55;;
33491;SDS011;20010;51.488;7.232;2023-02-23T05:19:51;85.43;;;55.10;;
33491;SDS011;20010;51.488;7.232;2023-02-23T05:22:18;87.75;;;54.10;;
33491;SDS011;20010;51.488;7.232;2023-02-23T05:24:46;87.15;;;54.88;;
33491;SDS011;20010;51.488;7.232;2023-02-23T05:27:13;86.55;;;53.45;;
33491;SDS011;20010;51.488;7.232;2023-02-23T05:29:40;89.13;;;54.97;;
33491;SDS011;20010;51.488;7.232;2023-02-23T05:32:07;92.35;;;53.40;;
33491;SDS011;20010;51.488;7.232;2023-02-23T05:34:34;90.78;;;53.25;;
33491;SDS011;20010;51.488;7.232;2023-02-23T05:37:00;97.47;;;58.03;;
33491;SDS011;20010;51.488;7.232;2023-02-23T05:39:27;90.28;;;56.47;;
33491;SDS011;20010;51.488;7.232;2023-02-23T05:41:54;92.03;;;53.65;;
33491;SDS011;20010;51.488;7.232;2023-02-23T05:44:20;92.93;;;55.88;;
33491;SDS011;20010;51.488;7.232;2023-02-23T05:46:47;84.82;;;51.55;;
33491;SDS011;20010;51.488;7.232;2023-02-23T05:49:13;91.82;;;54.47;;
33491;SDS011;20010;51.488;7.232;2023-02-23T05:51:40;97.15;;;56.03;;
33491;SDS011;20010;51.488;7.232;2023-02-23T05:54:07;99.47;;;57.45;;
33491;SDS011;20010;51.488;7.232;2023-02-23T05:56:34;81.93;;;52.72;;
33491;SDS011;20010;51.488;7.232;2023-02-23T05:59:01;103.30;;;58.25;;
33491;SDS011;20010;51.488;7.232;2023-02-23T06:01:31;97.93;;;56.42;;
33491;SDS011;20010;51.488;7.232;2023-02-23T06:03:57;96.75;;;55.60;;
33491;SDS011;20010;51.488;7.232;2023-02-23T06:06:24;96.22;;;57.65;;
33491;SDS011;20010;51.488;7.232;2023-02-23T06:08:51;99.13;;;60.00;;
33491;SDS011;20010;51.488;7.232;2023-02-23T06:11:18;101.70;;;62.15;;
33491;SDS011;20010;51.488;7.232;2023-02-23T06:13:45;107.32;;;64.70;;
33491;SDS011;20010;51.488;7.232;2023-02-23T06:16:13;98.47;;;60.40;;
33491;SDS011;20010;51.488;7.232;2023-02-23T06:18:39;107.90;;;62.92;;
33491;SDS011;20010;51.488;7.232;2023-02-23T06:21:06;104.00;;;60.10;;
33491;SDS011;20010;51.488;7.232;2023-02-23T06:23:32;104.78;;;61.78;;
33491;SDS011;20010;51.488;7.232;2023-02-23T06:25:59;102.30;;;61.25;;
33491;SDS011;20010;51.488;7.232;2023-02-23T06:28:26;110.90;;;62.05;;
33491;SDS011;20010;51.488;7.232;2023-02-23T06:30:53;92.57;;;58.95;;
33491;SDS011;20010;51.488;7.232;2023-02-23T06:33:21;104.40;;;61.38;;
33491;SDS011;20010;51.488;7.232;2023-02-23T06:35:48;101.80;;;63.17;;
33491;SDS011;20010;51.488;7.232;2023-02-23T06:38:15;109.53;;;63.45;;
33491;SDS011;20010;51.488;7.232;2023-02-23T06:40:41;103.15;;;63.63;;
33491;SDS011;20010;51.488;7.232;2023-02-23T06:43:08;109.43;;;65.30;;
33491;SDS011;20010;51.488;7.232;2023-02-23T06:45:35;107.65;;;63.63;;
33491;SDS011;20010;51.488;7.232;2023-02-23T06:48:01;107.60;;;63.67;;
33491;SDS011;20010;51.488;7.232;2023-02-23T06:50:29;111.10;;;65.07;;
33491;SDS011;20010;51.488;7.232;2023-02-23T06:52:56;105.05;;;62.15;;
33491;SDS011;20010;51.488;7.232;2023-02-23T06:55:23;111.40;;;63.78;;
33491;SDS011;20010;51.488;7.232;2023-02-23T06:57:49;105.70;;;63.85;;
33491;SDS011;20010;51.488;7.232;2023-02-23T07:00:18;107.15;;;63.65;;
33491;SDS011;20010;51.488;7.232;2023-02-23T07:02:45;106.55;;;63.63;;
33491;SDS011;20010;51.488;7.232;2023-02-23T07:05:12;101.32;;;62.80;;
33491;SDS011;20010;51.488;7.232;2023-02-23T07:07:39;113.03;;;62.85;;
33491;SDS011;20010;51.488;7.232;2023-02-23T07:10:05;103.82;;;60.75;;
33491;SDS011;20010;51.488;7.232;2023-02-23T07:12:33;103.22;;;62.47;;
33491;SDS011;20010;51.488;7.232;2023-02-23T07:14:59;109.00;;;60.75;;
33491;SDS011;20010;51.488;7.232;2023-02-23T07:17:26;115.25;;;62.15;;
33491;SDS011;20010;51.488;7.232;2023-02-23T07:19:55;107.38;;;61.55;;
33491;SDS011;20010;51.488;7.232;2023-02-23T07:22:23;106.88;;;61.05;;
33491;SDS011;20010;51.488;7.232;2023-02-23T07:24:53;114.90;;;62.80;;
33491;SDS011;20010;51.488;7.232;2023-02-23T07:27:19;108.00;;;63.20;;
33491;SDS011;20010;51.488;7.232;2023-02-23T07:29:46;118.32;;;68.40;;
33491;SDS011;20010;51.488;7.232;2023-02-23T07:32:12;117.18;;;64.10;;
33491;SDS011;20010;51.488;7.232;2023-02-23T07:34:39;110.10;;;64.85;;
33491;SDS011;20010;51.488;7.232;2023-02-23T07:37:05;111.88;;;64.43;;
33491;SDS011;20010;51.488;7.232;2023-02-23T07:39:32;112.15;;;63.90;;
33491;SDS011;20010;51.488;7.232;2023-02-23T07:41:58;105.70;;;63.00;;
33491;SDS011;20010;51.488;7.232;2023-02-23T07:44:25;112.28;;;63.42;;
33491;SDS011;20010;51.488;7.232;2023-02-23T07:46:52;113.35;;;65.05;;
33491;SDS011;20010;51.488;7.232;2023-02-23T07:49:18;110.50;;;64.38;;
33491;SDS011;20010;51.488;7.232;2023-02-23T07:51:45;110.65;;;62.22;;
33491;SDS011;20010;51.488;7.232;2023-02-23T07:54:12;114.25;;;66.80;;
33491;SDS011;20010;51.488;7.232;2023-02-23T07:56:38;111.45;;;62.35;;
33491;SDS011;20010;51.488;7.232;2023-02-23T07:59:05;106.32;;;59.53;;
33491;SDS011;20010;51.488;7.232;2023-02-23T08:01:32;117.13;;;64.80;;
33491;SDS011;20010;51.488;7.232;2023-02-23T08:03:58;105.65;;;59.67;;
33491;SDS011;20010;51.488;7.232;2023-02-23T08:06:26;106.93;;;64.45;;
33491;SDS011;20010;51.488;7.232;2023-02-23T08:08:52;98.75;;;60.67;;
33491;SDS011;20010;51.488;7.232;2023-02-23T08:11:19;104.70;;;63.65;;
33491;SDS011;20010;51.488;7.232;2023-02-23T08:13:46;104.63;;;60.70;;
33491;SDS011;20010;51.488;7.232;2023-02-23T08:16:12;102.82;;;59.60;;
33491;SDS011;20010;51.488;7.232;2023-02-23T08:18:41;97.95;;;57.38;;
33491;SDS011;20010;51.488;7.232;2023-02-23T08:21:08;97.28;;;56.38;;
33491;SDS011;20010;51.488;7.232;2023-02-23T08:23:34;92.85;;;58.60;;
33491;SDS011;20010;51.488;7.232;2023-02-23T08:26:01;90.18;;;54.50;;
33491;SDS011;20010;51.488;7.232;2023-02-23T08:28:29;86.95;;;54.25;;
33491;SDS011;20010;51.488;7.232;2023-02-23T08:30:56;88.95;;;53.05;;
33491;SDS011;20010;51.488;7.232;2023-02-23T08:33:24;88.40;;;52.35;;
33491;SDS011;20010;51.488;7.232;2023-02-23T08:35:51;99.63;;;56.50;;
33491;SDS011;20010;51.488;7.232;2023-02-23T08:38:18;95.03;;;55.63;;
33491;SDS011;20010;51.488;7.232;2023-02-23T08:40:45;84.22;;;52.28;;
33491;SDS011;20010;51.488;7.232;2023-02-23T08:43:12;88.53;;;54.45;;
33491;SDS011;20010;51.488;7.232;2023-02-23T08:45:38;83.75;;;51.63;;
33491;SDS011;20010;51.488;7.232;2023-02-23T08:48:05;86.10;;;54.97;;
33491;SDS011;20010;51.488;7.232;2023-02-23T08:50:32;94.10;;;51.22;;
33491;SDS011;20010;51.488;7.232;2023-02-23T08:52:59;88.78;;;51.40;;
33491;SDS011;20010;51.488;7.232;2023-02-23T08:55:25;90.32;;;53.42;;
33491;SDS011;20010;51.488;7.232;2023-02-23T08:57:52;97.10;;;55.70;;
33491;SDS011;20010;51.488;7.232;2023-02-23T09:00:19;86.70;;;52.03;;
33491;SDS011;20010;51.488;7.232;2023-02-23T09:02:46;80.20;;;51.60;;
33491;SDS011;20010;51.488;7.232;2023-02-23T09:05:13;85.53;;;49.08;;
33491;SDS011;20010;51.488;7.232;2023-02-23T09:07:41;82.03;;;47.47;;
33491;SDS011;20010;51.488;7.232;2023-02-23T09:10:11;85.28;;;49.20;;
33491;SDS011;20010;51.488;7.232;2023-02-23T09:12:39;83.50;;;50.33;;
33491;SDS011;20010;51.488;7.232;2023-02-23T09:15:06;92.75;;;52.28;;
33491;SDS011;20010;51.488;7.232;2023-02-23T09:17:33;92.10;;;51.70;;
33491;SDS011;20010;51.488;7.232;2023-02-23T09:20:00;91.65;;;52.30;;
33491;SDS011;20010;51.488;7.232;2023-02-23T09:22:27;83.72;;;50.60;;
33491;SDS011;20010;51.488;7.232;2023-02-23T09:24:53;90.25;;;52.20;;
33491;SDS011;20010;51.488;7.232;2023-02-23T09:27:20;83.47;;;51.17;;
33491;SDS011;20010;51.488;7.232;2023-02-23T09:29:46;86.53;;;51.05;;
33491;SDS011;20010;51.488;7.232;2023-02-23T09:32:13;81.60;;;50.63;;
33491;SDS011;20010;51.488;7.232;2023-02-23T09:34:40;77.68;;;46.83;;
33491;SDS011;20010;51.488;7.232;2023-02-23T09:37:06;72.07;;;45.78;;
33491;SDS011;20010;51.488;7.232;2023-02-23T09:39:33;71.95;;;45.28;;
33491;SDS011;20010;51.488;7.232;2023-02-23T09:44:41;77.00;;;44.88;;
33491;SDS011;20010;51.488;7.232;2023-02-23T09:49:59;68.00;;;42.22;;
33491;SDS011;20010;51.488;7.232;2023-02-23T09:52:34;72.15;;;43.05;;
33491;SDS011;20010;51.488;7.232;2023-02-23T09:55:04;72.53;;;42.35;;
33491;SDS011;20010;51.488;7.232;2023-02-23T09:57:38;81.53;;;46.25;;
33491;SDS011;20010;51.488;7.232;2023-02-23T10:00:12;84.60;;;47.88;;
33491;SDS011;20010;51.488;7.232;2023-02-23T10:02:58;92.15;;;49.85;;
33491;SDS011;20010;51.488;7.232;2023-02-23T10:05:29;86.60;;;47.50;;
33491;SDS011;20010;51.488;7.232;2023-02-23T10:08:05;83.60;;;45.95;;
33491;SDS011;20010;51.488;7.232;2023-02-23T10:10:45;87.90;;;47.92;;
33491;SDS011;20010;51.488;7.232;2023-02-23T10:13:16;87.85;;;45.08;;
33491;SDS011;20010;51.488;7.232;2023-02-23T10:15:52;81.47;;;43.45;;
33491;SDS011;20010;51.488;7.232;2023-02-23T10:21:17;76.00;;;43.30;;
33491;SDS011;20010;51.488;7.232;2023-02-23T10:24:06;77.60;;;43.20;;
33491;SDS011;20010;51.488;7.232;2023-02-23T10:26:42;73.78;;;40.22;;
33491;SDS011;20010;51.488;7.232;2023-02-23T10:29:16;73.90;;;41.53;;
33491;SDS011;20010;51.488;7.232;2023-02-23T10:31:51;74.07;;;41.90;;
33491;SDS011;20010;51.488;7.232;2023-02-23T10:34:23;71.05;;;41.72;;
33491;SDS011;20010;51.488;7.232;2023-02-23T10:36:59;64.28;;;38.72;;
33491;SDS011;20010;51.488;7.232;2023-02-23T10:39:28;66.65;;;38.55;;
33491;SDS011;20010;51.488;7.232;2023-02-23T10:42:00;63.67;;;36.63;;
33491;SDS011;20010;51.488;7.232;2023-02-23T10:44:29;52.03;;;34.55;;
33491;SDS011;20010;51.488;7.232;2023-02-23T10:46:59;53.55;;;33.35;;
33491;SDS011;20010;51.488;7.232;2023-02-23T10:49:34;53.85;;;33.47;;
33491;SDS011;20010;51.488;7.232;2023-02-23T10:52:09;54.67;;;33.85;;
33491;SDS011;20010;51.488;7.232;2023-02-23T10:54:40;53.40;;;34.05;;
33491;SDS011;20010;51.488;7.232;2023-02-23T10:57:23;48.75;;;32.17;;
33491;SDS011;20010;51.488;7.232;2023-02-23T11:00:35;50.78;;;31.58;;
33491;SDS011;20010;51.488;7.232;2023-02-23T11:02:43;49.40;;;32.65;;
33491;SDS011;20010;51.488;7.232;2023-02-23T11:16:05;58.03;;;35.15;;
33491;SDS011;20010;51.488;7.232;2023-02-23T11:18:36;61.70;;;35.90;;
33491;SDS011;20010;51.488;7.232;2023-02-23T11:21:07;57.65;;;35.20;;
33491;SDS011;20010;51.488;7.232;2023-02-23T11:23:37;59.65;;;35.83;;
33491;SDS011;20010;51.488;7.232;2023-02-23T11:26:05;55.72;;;33.22;;
33491;SDS011;20010;51.488;7.232;2023-02-23T11:28:50;57.17;;;33.47;;
33491;SDS011;20010;51.488;7.232;2023-02-23T11:31:19;57.65;;;30.98;;
33491;SDS011;20010;51.488;7.232;2023-02-23T11:33:48;49.40;;;29.52;;
33491;SDS011;20010;51.488;7.232;2023-02-23T11:36:25;53.95;;;30.17;;
33491;SDS011;20010;51.488;7.232;2023-02-23T11:39:01;54.80;;;32.17;;
33491;SDS011;20010;51.488;7.232;2023-02-23T11:41:45;52.28;;;29.98;;
33491;SDS011;20010;51.488;7.232;2023-02-23T11:44:21;50.30;;;27.25;;
33491;SDS011;20010;51.488;7.232;2023-02-23T11:46:48;48.42;;;28.35;;
33491;SDS011;20010;51.488;7.232;2023-02-23T11:49:20;44.47;;;26.00;;
33491;SDS011;20010;51.488;7.232;2023-02-23T11:51:55;46.35;;;25.98;;
33491;SDS011;20010;51.488;7.232;2023-02-23T11:54:26;47.67;;;27.70;;
33491;SDS011;20010;51.488;7.232;2023-02-23T11:56:55;45.78;;;28.08;;
33491;SDS011;20010;51.488;7.232;2023-02-23T11:59:32;47.67;;;27.90;;
33491;SDS011;20010;51.488;7.232;2023-02-23T12:02:46;44.92;;;26.67;;
33491;SDS011;20010;51.488;7.232;2023-02-23T12:05:01;52.45;;;28.80;;
33491;SDS011;20010;51.488;7.232;2023-02-23T12:07:38;50.63;;;28.50;;
33491;SDS011;20010;51.488;7.232;2023-02-23T12:10:15;55.47;;;28.90;;
33491;SDS011;20010;51.488;7.232;2023-02-23T12:13:04;48.05;;;27.15;;
33491;SDS011;20010;51.488;7.232;2023-02-23T12:26:45;47.22;;;27.77;;
33491;SDS011;20010;51.488;7.232;2023-02-23T12:29:20;54.15;;;26.92;;
33491;SDS011;20010;51.488;7.232;2023-02-23T12:31:51;41.42;;;24.55;;
33491;SDS011;20010;51.488;7.232;2023-02-23T12:36:50;46.50;;;25.10;;
33491;SDS011;20010;51.488;7.232;2023-02-23T12:39:27;41.40;;;24.38;;
33491;SDS011;20010;51.488;7.232;2023-02-23T12:42:13;38.42;;;24.30;;
33491;SDS011;20010;51.488;7.232;2023-02-23T12:47:30;38.70;;;24.10;;
33491;SDS011;20010;51.488;7.232;2023-02-23T12:50:04;30.92;;;19.85;;
33491;SDS011;20010;51.488;7.232;2023-02-23T12:52:44;34.93;;;20.37;;
33491;SDS011;20010;51.488;7.232;2023-02-23T12:55:14;33.35;;;20.75;;
33491;SDS011;20010;51.488;7.232;2023-02-23T12:57:53;30.63;;;18.88;;
33491;SDS011;20010;51.488;7.232;2023-02-23T13:06:06;33.00;;;19.58;;
33491;SDS011;20010;51.488;7.232;2023-02-23T13:17:10;35.97;;;21.20;;
33491;SDS011;20010;51.488;7.232;2023-02-23T13:19:58;35.08;;;22.02;;
33491;SDS011;20010;51.488;7.232;2023-02-23T13:27:57;35.80;;;20.65;;
33491;SDS011;20010;51.488;7.232;2023-02-23T13:30:25;36.50;;;20.98;;
33491;SDS011;20010;51.488;7.232;2023-02-23T13:33:01;35.53;;;20.67;;
33491;SDS011;20010;51.488;7.232;2023-02-23T13:35:33;38.83;;;22.27;;
33491;SDS011;20010;51.488;7.232;2023-02-23T13:38:08;38.28;;;22.30;;
33491;SDS011;20010;51.488;7.232;2023-02-23T13:40:43;36.38;;;21.65;;
33491;SDS011;20010;51.488;7.232;2023-02-23T13:45:50;37.75;;;22.23;;
33491;SDS011;20010;51.488;7.232;2023-02-23T13:56:34;37.45;;;23.42;;
33491;SDS011;20010;51.488;7.232;2023-02-23T13:59:07;39.28;;;23.58;;
33491;SDS011;20010;51.488;7.232;2023-02-23T14:01:38;35.88;;;21.45;;
33491;SDS011;20010;51.488;7.232;2023-02-23T14:04:19;35.63;;;20.25;;
33491;SDS011;20010;51.488;7.232;2023-02-23T14:07:30;36.58;;;20.48;;
33491;SDS011;20010;51.488;7.232;2023-02-23T14:09:37;37.42;;;21.58;;
33491;SDS011;20010;51.488;7.232;2023-02-23T14:15:27;31.38;;;18.70;;
33491;SDS011;20010;51.488;7.232;2023-02-23T14:32:37;30.30;;;19.38;;
33491;SDS011;20010;51.488;7.232;2023-02-23T14:41:11;29.63;;;17.95;;
33491;SDS011;20010;51.488;7.232;2023-02-23T14:43:38;26.85;;;17.30;;
33491;SDS011;20010;51.488;7.232;2023-02-23T14:46:11;32.28;;;18.65;;
33491;SDS011;20010;51.488;7.232;2023-02-23T14:48:43;30.13;;;17.15;;
33491;SDS011;20010;51.488;7.232;2023-02-23T14:51:20;29.40;;;17.75;;
33491;SDS011;20010;51.488;7.232;2023-02-23T14:53:51;31.17;;;18.63;;
33491;SDS011;20010;51.488;7.232;2023-02-23T14:56:21;27.95;;;17.02;;
33491;SDS011;20010;51.488;7.232;2023-02-23T14:59:05;32.42;;;19.23;;
33491;SDS011;20010;51.488;7.232;2023-02-23T15:01:32;29.95;;;17.80;;
33491;SDS011;20010;51.488;7.232;2023-02-23T15:04:04;31.40;;;18.08;;
33491;SDS011;20010;51.488;7.232;2023-02-23T15:09:01;32.85;;;17.52;;
33491;SDS011;20010;51.488;7.232;2023-02-23T15:11:28;30.02;;;17.85;;
33491;SDS011;20010;51.488;7.232;2023-02-23T15:13:57;30.83;;;16.42;;
33491;SDS011;20010;51.488;7.232;2023-02-23T15:16:27;30.73;;;16.33;;
33491;SDS011;20010;51.488;7.232;2023-02-23T15:18:57;36.15;;;17.75;;
33491;SDS011;20010;51.488;7.232;2023-02-23T15:21:24;30.50;;;19.25;;
33491;SDS011;20010;51.488;7.232;2023-02-23T15:23:57;32.70;;;18.65;;
33491;SDS011;20010;51.488;7.232;2023-02-23T15:26:28;35.33;;;17.75;;
33491;SDS011;20010;51.488;7.232;2023-02-23T15:29:05;36.00;;;17.85;;
33491;SDS011;20010;51.488;7.232;2023-02-23T15:31:31;35.72;;;18.90;;
33491;SDS011;20010;51.488;7.232;2023-02-23T15:34:00;38.65;;;22.73;;
33491;SDS011;20010;51.488;7.232;2023-02-23T15:36:27;33.30;;;20.10;;
33491;SDS011;20010;51.488;7.232;2023-02-23T15:38:56;33.53;;;18.92;;
33491;SDS011;20010;51.488;7.232;2023-02-23T15:41:29;36.58;;;19.88;;
33491;SDS011;20010;51.488;7.232;2023-02-23T15:44:02;34.95;;;20.38;;
33491;SDS011;20010;51.488;7.232;2023-02-23T15:46:40;37.35;;;19.58;;
33491;SDS011;20010;51.488;7.232;2023-02-23T15:49:09;34.75;;;18.80;;
33491;SDS011;20010;51.488;7.232;2023-02-23T15:51:38;33.80;;;18.88;;
33491;SDS011;20010;51.488;7.232;2023-02-23T15:54:27;34.33;;;18.75;;
33491;SDS011;20010;51.488;7.232;2023-02-23T15:56:55;39.85;;;20.67;;
33491;SDS011;20010;51.488;7.232;2023-02-23T15:59:27;42.38;;;20.75;;
33491;SDS011;20010;51.488;7.232;2023-02-23T16:01:57;37.13;;;20.92;;
33491;SDS011;20010;51.488;7.232;2023-02-23T16:04:27;38.00;;;21.73;;
33491;SDS011;20010;51.488;7.232;2023-02-23T16:07:08;44.75;;;22.85;;
33491;SDS011;20010;51.488;7.232;2023-02-23T16:12:49;39.60;;;20.10;;
33491;SDS011;20010;51.488;7.232;2023-02-23T16:18:01;37.15;;;20.50;;
33491;SDS011;20010;51.488;7.232;2023-02-23T16:23:00;42.22;;;21.95;;
33491;SDS011;20010;51.488;7.232;2023-02-23T16:25:28;36.97;;;20.73;;
33491;SDS011;20010;51.488;7.232;2023-02-23T16:33:08;42.80;;;22.23;;
33491;SDS011;20010;51.488;7.232;2023-02-23T16:35:38;45.20;;;23.02;;
33491;SDS011;20010;51.488;7.232;2023-02-23T16:40:53;42.95;;;22.95;;
33491;SDS011;20010;51.488;7.232;2023-02-23T16:43:20;45.65;;;23.65;;
33491;SDS011;20010;51.488;7.232;2023-02-23T16:45:47;47.10;;;24.17;;
33491;SDS011;20010;51.488;7.232;2023-02-23T16:48:14;44.70;;;23.00;;
33491;SDS011;20010;51.488;7.232;2023-02-23T16:50:41;49.45;;;21.92;;
33491;SDS011;20010;51.488;7.232;2023-02-23T16:53:09;43.70;;;22.75;;
33491;SDS011;20010;51.488;7.232;2023-02-23T16:55:37;43.47;;;21.42;;
33491;SDS011;20010;51.488;7.232;2023-02-23T16:58:24;45.08;;;24.75;;
33491;SDS011;20010;51.488;7.232;2023-02-23T17:00:51;49.15;;;23.35;;
33491;SDS011;20010;51.488;7.232;2023-02-23T17:05:49;39.72;;;19.70;;
33491;SDS011;20010;51.488;7.232;2023-02-23T17:08:16;34.72;;;18.83;;
33491;SDS011;20010;51.488;7.232;2023-02-23T17:10:44;40.55;;;19.83;;
33491;SDS011;20010;51.488;7.232;2023-02-23T17:15:43;33.47;;;17.50;;
33491;SDS011;20010;51.488;7.232;2023-02-23T17:18:13;33.67;;;18.00;;
33491;SDS011;20010;51.488;7.232;2023-02-23T17:20:39;38.17;;;19.75;;
33491;SDS011;20010;51.488;7.232;2023-02-23T17:23:06;36.70;;;18.85;;